Time;durP1;ratioP1;P1;durP2;ratioP2;P2;SDS_P1;SDS_P2;PMS_P1;PMS_P2;Temp;Humidity;BMP_temperature;BMP_pressure;BME280_temperature;BME280_humidity;BME280_pressure;Samples;Min_cycle;Max_cycle;Signal;HPM_P1;HPM_P2
2019/10/04 00:00:56;;;;;;;2.2;1.9;;;;;;;;;;;;;
2019/10/04 00:05:49;;;;;;;2.8;1.9;;;;;;;;;;;;;
2019/10/04 00:08:15;;;;;;;3.8;2.1;;;;;;;;;;;;;
2019/10/04 00:10:41;;;;;;;2.4;1.9;;;;;;;;;;;;;
2019/10/04 00:13:03;;;;;;;3.8;2.1;;;;;;;;;;;;;
2019/10/04 00:15:28;;;;;;;2.9;1.8;;;;;;;;;;;;;
2019/10/04 00:17:54;;;;;;;3.4;2;;;;;;;;;;;;;
2019/10/04 00:20:21;;;;;;;2.7;1.9;;;;;;;;;;;;;
2019/10/04 00:22:45;;;;;;;4.1;2;;;;;;;;;;;;;
2019/10/04 00:25:14;;;;;;;2.7;2;;;;;;;;;;;;;
2019/10/04 00:27:36;;;;;;;2.8;2;;;;;;;;;;;;;
2019/10/04 00:30:08;;;;;;;2.8;1.9;;;;;;;;;;;;;
2019/10/04 00:34:56;;;;;;;3.4;2.2;;;;;;;;;;;;;
2019/10/04 00:37:24;;;;;;;2.4;1.9;;;;;;;;;;;;;
2019/10/04 00:39:53;;;;;;;3.2;1.9;;;;;;;;;;;;;
2019/10/04 00:42:14;;;;;;;3;1.8;;;;;;;;;;;;;
2019/10/04 00:44:43;;;;;;;2.4;1.7;;;;;;;;;;;;;
2019/10/04 00:47:08;;;;;;;2.7;1.8;;;;;;;;;;;;;
2019/10/04 00:49:31;;;;;;;2.6;1.7;;;;;;;;;;;;;
2019/10/04 00:52:01;;;;;;;3.7;2;;;;;;;;;;;;;
2019/10/04 00:54:27;;;;;;;2.3;1.7;;;;;;;;;;;;;
2019/10/04 00:56:53;;;;;;;4.7;1.8;;;;;;;;;;;;;
2019/10/04 00:59:19;;;;;;;3;1.9;;;;;;;;;;;;;
2019/10/04 01:01:44;;;;;;;4.7;1.9;;;;;;;;;;;;;
2019/10/04 01:04:08;;;;;;;4;2;;;;;;;;;;;;;
2019/10/04 01:06:33;;;;;;;2.7;1.9;;;;;;;;;;;;;
2019/10/04 01:09:03;;;;;;;2;1.6;;;;;;;;;;;;;
2019/10/04 01:11:26;;;;;;;3.6;1.9;;;;;;;;;;;;;
2019/10/04 01:13:55;;;;;;;3.8;1.9;;;;;;;;;;;;;
2019/10/04 01:16:16;;;;;;;4.4;2;;;;;;;;;;;;;
2019/10/04 01:18:40;;;;;;;2.2;1.7;;;;;;;;;;;;;
2019/10/04 01:21:05;;;;;;;3.2;2;;;;;;;;;;;;;
2019/10/04 01:23:36;;;;;;;3.5;2;;;;;;;;;;;;;
2019/10/04 01:26:02;;;;;;;2.7;1.9;;;;;;;;;;;;;
2019/10/04 01:28:23;;;;;;;4.9;1.9;;;;;;;;;;;;;
2019/10/04 01:30:49;;;;;;;2.3;1.6;;;;;;;;;;;;;
2019/10/04 01:33:20;;;;;;;2.6;2;;;;;;;;;;;;;
2019/10/04 01:35:47;;;;;;;4.2;1.8;;;;;;;;;;;;;
2019/10/04 01:38:11;;;;;;;4.4;1.7;;;;;;;;;;;;;
2019/10/04 01:40:36;;;;;;;2.9;1.7;;;;;;;;;;;;;
2019/10/04 01:43:11;;;;;;;3.9;1.7;;;;;;;;;;;;;
2019/10/04 01:45:32;;;;;;;3.4;1.7;;;;;;;;;;;;;
2019/10/04 01:47:56;;;;;;;2.5;1.8;;;;;;;;;;;;;
2019/10/04 01:50:20;;;;;;;4.4;1.9;;;;;;;;;;;;;
2019/10/04 01:52:45;;;;;;;3.5;1.9;;;;;;;;;;;;;
2019/10/04 01:55:12;;;;;;;4;2;;;;;;;;;;;;;
2019/10/04 01:57:37;;;;;;;3.3;1.8;;;;;;;;;;;;;
2019/10/04 02:00:02;;;;;;;4.8;1.8;;;;;;;;;;;;;
2019/10/04 02:02:25;;;;;;;3.4;1.8;;;;;;;;;;;;;
2019/10/04 02:04:51;;;;;;;2.7;1.8;;;;;;;;;;;;;
2019/10/04 02:07:21;;;;;;;2.8;1.7;;;;;;;;;;;;;
2019/10/04 02:09:48;;;;;;;2.3;1.9;;;;;;;;;;;;;
2019/10/04 02:12:22;;;;;;;3.8;2;;;;;;;;;;;;;
2019/10/04 02:14:46;;;;;;;3;2;;;;;;;;;;;;;
2019/10/04 02:17:17;;;;;;;3.4;1.6;;;;;;;;;;;;;
2019/10/04 02:19:41;;;;;;;2.3;1.8;;;;;;;;;;;;;
2019/10/04 02:22:06;;;;;;;2.9;1.7;;;;;;;;;;;;;
2019/10/04 02:24:33;;;;;;;3.7;1.5;;;;;;;;;;;;;
2019/10/04 02:26:54;;;;;;;3;1.5;;;;;;;;;;;;;
2019/10/04 02:29:24;;;;;;;2.1;1.4;;;;;;;;;;;;;
2019/10/04 02:31:49;;;;;;;3.9;1.6;;;;;;;;;;;;;
2019/10/04 02:34:14;;;;;;;2.4;1.7;;;;;;;;;;;;;
2019/10/04 02:36:41;;;;;;;3.7;1.9;;;;;;;;;;;;;
2019/10/04 02:39:02;;;;;;;3.2;1.9;;;;;;;;;;;;;
2019/10/04 02:41:26;;;;;;;3.5;2.2;;;;;;;;;;;;;
2019/10/04 02:43:52;;;;;;;3.8;1.9;;;;;;;;;;;;;
2019/10/04 02:46:22;;;;;;;3.4;1.8;;;;;;;;;;;;;
2019/10/04 02:48:49;;;;;;;2.6;1.7;;;;;;;;;;;;;
2019/10/04 02:51:12;;;;;;;2;1.6;;;;;;;;;;;;;
2019/10/04 02:53:36;;;;;;;3.9;2;;;;;;;;;;;;;
2019/10/04 02:56:00;;;;;;;3;1.8;;;;;;;;;;;;;
2019/10/04 02:58:26;;;;;;;3.1;1.9;;;;;;;;;;;;;
2019/10/04 03:00:53;;;;;;;2;1.7;;;;;;;;;;;;;
2019/10/04 03:03:19;;;;;;;2;1.7;;;;;;;;;;;;;
2019/10/04 03:05:44;;;;;;;3.4;1.8;;;;;;;;;;;;;
2019/10/04 03:08:08;;;;;;;5.9;2.7;;;;;;;;;;;;;
2019/10/04 03:10:36;;;;;;;5.3;2.9;;;;;;;;;;;;;
2019/10/04 03:13:00;;;;;;;2.8;2.5;;;;;;;;;;;;;
2019/10/04 03:15:24;;;;;;;2.8;2.2;;;;;;;;;;;;;
2019/10/04 03:17:52;;;;;;;3.7;2.1;;;;;;;;;;;;;
2019/10/04 03:20:17;;;;;;;2.1;1.9;;;;;;;;;;;;;
2019/10/04 03:22:41;;;;;;;2.6;1.7;;;;;;;;;;;;;
2019/10/04 03:25:05;;;;;;;3.5;1.7;;;;;;;;;;;;;
2019/10/04 03:27:30;;;;;;;1.9;1.5;;;;;;;;;;;;;
2019/10/04 03:29:58;;;;;;;3.3;1.7;;;;;;;;;;;;;
2019/10/04 03:32:20;;;;;;;3.8;1.8;;;;;;;;;;;;;
2019/10/04 03:34:46;;;;;;;3.2;1.6;;;;;;;;;;;;;
2019/10/04 03:37:18;;;;;;;3.2;1.7;;;;;;;;;;;;;
2019/10/04 03:39:54;;;;;;;2;1.7;;;;;;;;;;;;;
2019/10/04 03:44:35;;;;;;;3.4;1.8;;;;;;;;;;;;;
2019/10/04 03:47:00;;;;;;;2.6;1.8;;;;;;;;;;;;;
2019/10/04 03:49:24;;;;;;;4.1;1.9;;;;;;;;;;;;;
2019/10/04 03:51:52;;;;;;;2;1.7;;;;;;;;;;;;;
2019/10/04 03:54:15;;;;;;;3.1;1.8;;;;;;;;;;;;;
2019/10/04 03:56:41;;;;;;;3.5;1.7;;;;;;;;;;;;;
2019/10/04 03:59:05;;;;;;;3.5;1.8;;;;;;;;;;;;;
2019/10/04 04:04:57;;;;;;;3.4;2.1;;;;;;;5.33;84.28613;936.1973;;;;
2019/10/04 04:07:21;;;;;;;3.5;2.2;;;;;;;5.18;84.10938;936.1811;;;;
2019/10/04 04:09:55;;;;;;;6.1;2.5;;;;;;;5.19;84.15625;936.1649;;;;
2019/10/04 04:12:26;;;;;;;3.5;2.4;;;;;;;5.13;84.38184;936.0907;;;;
2019/10/04 04:14:54;;;;;;;4.1;2.3;;;;;;;5.05;84.50098;936.1147;;;;
2019/10/04 04:17:24;;;;;;;2.8;2.1;;;;;;;5.14;84.74414;936.0295;;;;
2019/10/04 04:19:49;;;;;;;3;2.1;;;;;;;5.07;84.78711;936.0167;;;;
2019/10/04 04:22:17;;;;;;;3.3;1.9;;;;;;;5.22;84.55762;935.8929;;;;
2019/10/04 04:24:43;;;;;;;3.3;2.3;;;;;;;;;;;;;
2019/10/04 04:27:10;;;;;;;3.5;2.1;;;;;;;;;;;;;
2019/10/04 04:29:37;;;;;;;2.4;1.7;;;;;;;;;;;;;
2019/10/04 04:31:59;;;;;;;2.5;1.8;;;;;;;;;;;;;
2019/10/04 04:34:25;;;;;;;2.7;1.7;;;;;;;;;;;;;
2019/10/04 04:36:57;;;;;;;4.3;2.9;;;;;;;;;;;;;
2019/10/04 04:39:17;;;;;;;4.8;3.1;;;;;;;;;;;;;
2019/10/04 04:42:10;;;;;;;6.2;3.4;;;;;;;;;;;;;
2019/10/04 04:44:25;;;;;;;4.6;2.8;;;;;;;;;;;;;
2019/10/04 04:46:53;;;;;;;2.4;1.9;;;;;;;;;;;;;
2019/10/04 04:49:20;;;;;;;3.6;2.9;;;;;;;;;;;;;
2019/10/04 04:52:41;;;;;;;4.7;4.2;;;;;;;;;;;;;
2019/10/04 04:54:35;;;;;;;8.2;7.5;;;;;;;;;;;;;
2019/10/04 04:57:04;;;;;;;5.5;5;;;;;;;;;;;;;
2019/10/04 04:59:28;;;;;;;5.4;4.6;;;;;;;;;;;;;
2019/10/04 05:02:12;;;;;;;4.6;3.2;;;;;;;;;;;;;
2019/10/04 05:04:36;;;;;;;5.2;3.2;;;;;;;;;;;;;
2019/10/04 05:07:06;;;;;;;3.9;2.3;;;;;;;;;;;;;
2019/10/04 05:09:31;;;;;;;3.4;2.3;;;;;;;;;;;;;
2019/10/04 05:12:14;;;;;;;4.8;2.4;;;;;;;;;;;;;
2019/10/04 05:14:48;;;;;;;6.2;2.6;;;;;;;;;;;;;
2019/10/04 05:17:06;;;;;;;10.3;5.9;;;;;;;;;;;;;
2019/10/04 05:19:31;;;;;;;3.7;2;;;;;;;;;;;;;
2019/10/04 05:21:58;;;;;;;3.3;2.1;;;;;;;;;;;;;
2019/10/04 05:24:24;;;;;;;3.4;1.9;;;;;;;;;;;;;
2019/10/04 05:27:10;;;;;;;3.2;1.8;;;;;;;;;;;;;
2019/10/04 05:29:36;;;;;;;2.6;1.8;;;;;;;;;;;;;
2019/10/04 05:32:06;;;;;;;2.4;1.9;;;;;;;;;;;;;
2019/10/04 05:35:11;;;;;;;4.5;3.1;;;;;;;;;;;;;
2019/10/04 05:37:35;;;;;;;2.8;2.1;;;;;;;;;;;;;
2019/10/04 05:39:53;;;;;;;6.1;2.5;;;;;;;;;;;;;
2019/10/04 05:42:18;;;;;;;1.7;1.5;;;;;;;;;;;;;
2019/10/04 05:44:44;;;;;;;2.4;1.6;;;;;;;;;;;;;
2019/10/04 05:49:38;;;;;;;2.5;1.8;;;;;;;;;;;;;
2019/10/04 05:52:06;;;;;;;2.4;1.7;;;;;;;;;;;;;
2019/10/04 05:54:29;;;;;;;3.4;1.9;;;;;;;;;;;;;
2019/10/04 05:56:55;;;;;;;2.8;1.8;;;;;;;;;;;;;
2019/10/04 05:59:19;;;;;;;2.8;1.5;;;;;;;;;;;;;
2019/10/04 06:01:51;;;;;;;3.9;1.8;;;;;;;;;;;;;
2019/10/04 06:04:16;;;;;;;5;1.6;;;;;;;;;;;;;
2019/10/04 06:06:43;;;;;;;3.5;1.7;;;;;;;;;;;;;
2019/10/04 06:09:07;;;;;;;3.2;1.7;;;;;;;;;;;;;
2019/10/04 06:11:34;;;;;;;2.4;1.6;;;;;;;;;;;;;
2019/10/04 06:13:59;;;;;;;4.3;1.8;;;;;;;;;;;;;
2019/10/04 06:16:25;;;;;;;3.3;1.8;;;;;;;;;;;;;
2019/10/04 06:18:48;;;;;;;4.6;2;;;;;;;;;;;;;
2019/10/04 06:21:14;;;;;;;3.3;2;;;;;;;;;;;;;
2019/10/04 06:24:15;;;;;;;2.8;1.7;;;;;;;;;;;;;
2019/10/04 06:26:41;;;;;;;3.2;2;;;;;;;;;;;;;
2019/10/04 06:29:08;;;;;;;5.7;2.2;;;;;;;;;;;;;
2019/10/04 06:31:33;;;;;;;2.3;1.7;;;;;;;;;;;;;
2019/10/04 06:33:57;;;;;;;4.7;1.9;;;;;;;;;;;;;
2019/10/04 06:36:22;;;;;;;4.1;2.1;;;;;;;;;;;;;
2019/10/04 06:38:49;;;;;;;3;2;;;;;;;;;;;;;
2019/10/04 06:41:16;;;;;;;2.5;1.8;;;;;;;;;;;;;
2019/10/04 06:43:42;;;;;;;5.4;2;;;;;;;;;;;;;
2019/10/04 06:46:11;;;;;;;5.3;2.1;;;;;;;;;;;;;
2019/10/04 06:48:34;;;;;;;7.4;2.3;;;;;;;;;;;;;
2019/10/04 06:53:23;;;;;;;6.4;2.2;;;;;;;;;;;;;
2019/10/04 06:55:53;;;;;;;5.5;2.2;;;;;;;;;;;;;
2019/10/04 06:58:21;;;;;;;3.6;1.9;;;;;;;;;;;;;
2019/10/04 07:00:52;;;;;;;4.6;2.1;;;;;;;;;;;;;
2019/10/04 07:03:13;;;;;;;5.9;1.9;;;;;;;;;;;;;
2019/10/04 07:05:37;;;;;;;3.7;1.7;;;;;;;;;;;;;
2019/10/04 07:08:10;;;;;;;2.6;1.7;;;;;;;;;;;;;
2019/10/04 07:10:29;;;;;;;3.5;1.6;;;;;;;;;;;;;
2019/10/04 07:12:58;;;;;;;3.2;1.8;;;;;;;;;;;;;
2019/10/04 07:15:33;;;;;;;6.1;2.1;;;;;;;;;;;;;
2019/10/04 07:17:53;;;;;;;7;2.5;;;;;;;;;;;;;
2019/10/04 07:20:16;;;;;;;5.4;2.1;;;;;;;;;;;;;
2019/10/04 07:22:41;;;;;;;3.6;2;;;;;;;;;;;;;
2019/10/04 07:25:06;;;;;;;6.2;2.5;;;;;;;;;;;;;
2019/10/04 07:27:32;;;;;;;5.5;2.4;;;;;;;;;;;;;
2019/10/04 07:29:56;;;;;;;6.6;3.8;;;;;;;;;;;;;
2019/10/04 07:32:22;;;;;;;6.8;4.3;;;;;;;;;;;;;
2019/10/04 07:34:47;;;;;;;8.5;3.4;;;;;;;;;;;;;
2019/10/04 07:37:18;;;;;;;8.2;3.3;;;;;;;;;;;;;
2019/10/04 07:39:45;;;;;;;5.8;3.1;;;;;;;;;;;;;
2019/10/04 07:42:19;;;;;;;6.8;3.7;;;;;;;;;;;;;
2019/10/04 07:44:36;;;;;;;3.4;2.5;;;;;;;;;;;;;
2019/10/04 07:47:01;;;;;;;4.7;3;;;;;;;;;;;;;
2019/10/04 07:49:30;;;;;;;6;2.9;;;;;;;;;;;;;
2019/10/04 07:52:14;;;;;;;5.4;3.1;;;;;;;;;;;;;
2019/10/04 07:54:24;;;;;;;5.6;2.3;;;;;;;;;;;;;
2019/10/04 07:56:57;;;;;;;2.7;2;;;;;;;;;;;;;
2019/10/04 07:59:21;;;;;;;4;2.3;;;;;;;;;;;;;
2019/10/04 08:01:47;;;;;;;4.9;2.2;;;;;;;;;;;;;
2019/10/04 08:04:17;;;;;;;4.2;2.5;;;;;;;;;;;;;
2019/10/04 08:06:41;;;;;;;3.3;2.2;;;;;;;;;;;;;
2019/10/04 08:09:09;;;;;;;3.1;2.2;;;;;;;;;;;;;
2019/10/04 08:11:39;;;;;;;3.9;2.2;;;;;;;;;;;;;
2019/10/04 08:13:59;;;;;;;4.3;2.3;;;;;;;;;;;;;
2019/10/04 08:16:29;;;;;;;3.1;2.2;;;;;;;;;;;;;
2019/10/04 08:19:16;;;;;;;5.6;2.5;;;;;;;;;;;;;
2019/10/04 08:21:19;;;;;;;4.9;2;;;;;;;;;;;;;
2019/10/04 08:23:42;;;;;;;3.9;2;;;;;;;;;;;;;
2019/10/04 08:26:07;;;;;;;5.1;2.2;;;;;;;;;;;;;
2019/10/04 08:28:40;;;;;;;7.9;3.7;;;;;;;;;;;;;
2019/10/04 08:31:01;;;;;;;4.1;2;;;;;;;;;;;;;
2019/10/04 08:33:23;;;;;;;7.1;2.1;;;;;;;;;;;;;
2019/10/04 08:35:49;;;;;;;4.3;1.7;;;;;;;;;;;;;
2019/10/04 08:38:18;;;;;;;2.5;1.7;;;;;;;;;;;;;
2019/10/04 08:40:44;;;;;;;3.9;1.8;;;;;;;;;;;;;
2019/10/04 08:43:07;;;;;;;3.9;2.1;;;;;;;;;;;;;
2019/10/04 08:45:30;;;;;;;6.6;2.2;;;;;;;;;;;;;
2019/10/04 08:48:00;;;;;;;3.9;2.1;;;;;;;;;;;;;
2019/10/04 08:50:29;;;;;;;4.7;2.2;;;;;;;;;;;;;
2019/10/04 08:52:48;;;;;;;3.5;2.2;;;;;;;;;;;;;
2019/10/04 08:55:14;;;;;;;4.3;1.7;;;;;;;;;;;;;
2019/10/04 08:57:39;;;;;;;3.1;1.7;;;;;;;;;;;;;
2019/10/04 09:00:03;;;;;;;2.5;1.3;;;;;;;;;;;;;
2019/10/04 09:02:31;;;;;;;4.4;1.5;;;;;;;;;;;;;
2019/10/04 09:04:59;;;;;;;2.8;1.4;;;;;;;;;;;;;
2019/10/04 09:07:27;;;;;;;4.9;1.3;;;;;;;;;;;;;
2019/10/04 09:09:51;;;;;;;3.1;1.3;;;;;;;;;;;;;
2019/10/04 09:12:16;;;;;;;2.6;1.2;;;;;;;;;;;;;
2019/10/04 09:14:41;;;;;;;4.5;1.6;;;;;;;;;;;;;
2019/10/04 09:17:12;;;;;;;2.5;1.1;;;;;;;;;;;;;
2019/10/04 09:19:34;;;;;;;5.4;1.2;;;;;;;;;;;;;
2019/10/04 09:22:02;;;;;;;2.4;1.1;;;;;;;;;;;;;
2019/10/04 09:24:25;;;;;;;2.7;1.2;;;;;;;;;;;;;
2019/10/04 09:26:54;;;;;;;3.8;1.4;;;;;;;;;;;;;
2019/10/04 09:29:18;;;;;;;2.5;1.3;;;;;;;;;;;;;
2019/10/04 09:31:48;;;;;;;1.7;1;;;;;;;;;;;;;
2019/10/04 09:34:12;;;;;;;2.6;1.1;;;;;;;;;;;;;
2019/10/04 09:36:37;;;;;;;6.6;1.3;;;;;;;;;;;;;
2019/10/04 09:39:11;;;;;;;1.6;1;;;;;;;;;;;;;
2019/10/04 09:41:32;;;;;;;1.8;1.2;;;;;;;;;;;;;
2019/10/04 09:44:08;;;;;;;2.4;1;;;;;;;;;;;;;
2019/10/04 09:46:32;;;;;;;2.3;0.9;;;;;;;;;;;;;
2019/10/04 09:51:35;;;;;;;2.2;0.9;;;;;;;;;;;;;
2019/10/04 09:54:15;;;;;;;2;1;;;;;;;;;;;;;
2019/10/04 09:59:23;;;;;;;3.6;1.2;;;;;;;;;;;;;
2019/10/04 10:04:20;;;;;;;3.6;1.4;;;;;;;;;;;;;
2019/10/04 10:06:51;;;;;;;2.4;1.1;;;;;;;;;;;;;
2019/10/04 10:09:20;;;;;;;2.3;1.1;;;;;;;;;;;;;
2019/10/04 10:11:46;;;;;;;3.4;1.4;;;;;;;;;;;;;
2019/10/04 10:14:11;;;;;;;3.6;1.1;;;;;;;;;;;;;
2019/10/04 10:16:38;;;;;;;1.7;1;;;;;;;;;;;;;
2019/10/04 10:19:04;;;;;;;1.4;1;;;;;;;;;;;;;
2019/10/04 10:21:33;;;;;;;2.7;1.2;;;;;;;;;;;;;
2019/10/04 10:23:54;;;;;;;1.8;0.9;;;;;;;;;;;;;
2019/10/04 10:26:18;;;;;;;1.7;1;;;;;;;;;;;;;
2019/10/04 10:28:45;;;;;;;1.7;0.9;;;;;;;;;;;;;
2019/10/04 10:31:10;;;;;;;1.6;0.9;;;;;;;;;;;;;
2019/10/04 10:33:41;;;;;;;1.1;0.9;;;;;;;;;;;;;
2019/10/04 10:36:14;;;;;;;1.8;1;;;;;;;;;;;;;
2019/10/04 10:38:31;;;;;;;1.7;1.3;;;;;;;;;;;;;
2019/10/04 10:40:59;;;;;;;4.2;1.7;;;;;;;;;;;;;
2019/10/04 10:43:23;;;;;;;2.7;1.2;;;;;;;;;;;;;
2019/10/04 10:45:52;;;;;;;2.3;1;;;;;;;;;;;;;
2019/10/04 10:48:12;;;;;;;1.9;1;;;;;;;;;;;;;
2019/10/04 10:50:45;;;;;;;2.1;1.1;;;;;;;;;;;;;
2019/10/04 10:53:10;;;;;;;2.7;1.2;;;;;;;;;;;;;
2019/10/04 10:55:34;;;;;;;1.6;1;;;;;;;;;;;;;
2019/10/04 10:58:10;;;;;;;2.2;1.1;;;;;;;;;;;;;
2019/10/04 11:00:33;;;;;;;1.2;1;;;;;;;;;;;;;
2019/10/04 11:02:52;;;;;;;3.6;1.1;;;;;;;;;;;;;
2019/10/04 11:05:17;;;;;;;3.2;1.1;;;;;;;;;;;;;
2019/10/04 11:07:45;;;;;;;3.4;1.2;;;;;;;;;;;;;
2019/10/04 11:10:10;;;;;;;1.8;1.1;;;;;;;;;;;;;
2019/10/04 11:12:46;;;;;;;3.6;1.4;;;;;;;;;;;;;
2019/10/04 11:15:04;;;;;;;2.7;1.2;;;;;;;;;;;;;
2019/10/04 11:17:29;;;;;;;5.5;3.6;;;;;;;;;;;;;
2019/10/04 11:19:53;;;;;;;3.3;1.6;;;;;;;;;;;;;
2019/10/04 11:22:18;;;;;;;3.3;1;;;;;;;;;;;;;
2019/10/04 11:24:50;;;;;;;2.2;1.4;;;;;;;;;;;;;
2019/10/04 11:27:14;;;;;;;2.5;1.2;;;;;;;;;;;;;
2019/10/04 11:29:38;;;;;;;2.9;1.3;;;;;;;;;;;;;
2019/10/04 11:32:28;;;;;;;3.8;1.1;;;;;;;;;;;;;
2019/10/04 11:35:13;;;;;;;1.8;1;;;;;;;;;;;;;
2019/10/04 11:37:27;;;;;;;4;1.5;;;;;;;;;;;;;
2019/10/04 11:39:49;;;;;;;3.3;1.3;;;;;;;;;;;;;
2019/10/04 11:42:16;;;;;;;3;1;;;;;;;;;;;;;
2019/10/04 11:44:45;;;;;;;5;1.3;;;;;;;;;;;;;
2019/10/04 11:47:13;;;;;;;2.5;1.2;;;;;;;;;;;;;
2019/10/04 11:49:34;;;;;;;3.5;1.2;;;;;;;;;;;;;
2019/10/04 11:52:19;;;;;;;1.8;1.1;;;;;;;;;;;;;
2019/10/04 11:54:21;;;;;;;2.9;1.4;;;;;;;;;;;;;
2019/10/04 11:57:02;;;;;;;2.5;1.5;;;;;;;;;;;;;
2019/10/04 11:59:16;;;;;;;2.1;1.1;;;;;;;;;;;;;
2019/10/04 12:01:39;;;;;;;4;1.4;;;;;;;;;;;;;
2019/10/04 12:04:05;;;;;;;2.8;1.2;;;;;;;;;;;;;
2019/10/04 12:06:33;;;;;;;3.5;1.3;;;;;;;;;;;;;
2019/10/04 12:09:13;;;;;;;3.9;1.4;;;;;;;;;;;;;
2019/10/04 12:11:45;;;;;;;2.2;1.3;;;;;;;;;;;;;
2019/10/04 12:14:12;;;;;;;4.8;1.5;;;;;;;;;;;;;
2019/10/04 12:16:40;;;;;;;3.7;1.6;;;;;;;;;;;;;
2019/10/04 12:19:18;;;;;;;4.2;1.6;;;;;;;;;;;;;
2019/10/04 12:22:18;;;;;;;4.2;1.4;;;;;;;;;;;;;
2019/10/04 12:24:44;;;;;;;2.2;1.5;;;;;;;;;;;;;
2019/10/04 12:27:10;;;;;;;2.9;1.4;;;;;;;;;;;;;
2019/10/04 12:29:36;;;;;;;2.8;1.5;;;;;;;;;;;;;
2019/10/04 12:32:05;;;;;;;4.3;1.4;;;;;;;;;;;;;
2019/10/04 12:34:26;;;;;;;2;1.3;;;;;;;;;;;;;
2019/10/04 12:36:50;;;;;;;3.2;1.3;;;;;;;;;;;;;
2019/10/04 12:39:19;;;;;;;2.8;1.2;;;;;;;;;;;;;
2019/10/04 12:41:45;;;;;;;4.2;1.2;;;;;;;;;;;;;
2019/10/04 12:44:11;;;;;;;2.1;1.4;;;;;;;;;;;;;
2019/10/04 12:46:35;;;;;;;7.8;4.1;;;;;;;;;;;;;
2019/10/04 12:49:03;;;;;;;2.8;1.5;;;;;;;;;;;;;
2019/10/04 12:51:27;;;;;;;2.6;1.6;;;;;;;;;;;;;
2019/10/04 12:54:14;;;;;;;3.8;1.6;;;;;;;;;;;;;
2019/10/04 12:56:17;;;;;;;5.5;1.6;;;;;;;;;;;;;
2019/10/04 12:58:42;;;;;;;5.1;1.5;;;;;;;;;;;;;
2019/10/04 13:01:08;;;;;;;4.5;1.3;;;;;;;;;;;;;
2019/10/04 13:03:33;;;;;;;1.9;1.1;;;;;;;;;;;;;
2019/10/04 13:06:02;;;;;;;1.8;1;;;;;;;;;;;;;
2019/10/04 13:08:26;;;;;;;2.7;1.8;;;;;;;;;;;;;
2019/10/04 13:10:49;;;;;;;5;1.5;;;;;;;;;;;;;
2019/10/04 13:13:15;;;;;;;3.3;1.4;;;;;;;;;;;;;
2019/10/04 13:15:44;;;;;;;2.4;1.2;;;;;;;;;;;;;
2019/10/04 13:18:08;;;;;;;2.5;1;;;;;;;;;;;;;
2019/10/04 13:20:34;;;;;;;4.6;1.6;;;;;;;;;;;;;
2019/10/04 13:22:59;;;;;;;5.1;1.5;;;;;;;;;;;;;
2019/10/04 13:25:26;;;;;;;4.3;1.6;;;;;;;;;;;;;
2019/10/04 13:27:52;;;;;;;4.2;1.3;;;;;;;;;;;;;
2019/10/04 13:30:18;;;;;;;3.2;1.3;;;;;;;;;;;;;
2019/10/04 13:32:46;;;;;;;5.6;2.1;;;;;;;;;;;;;
2019/10/04 13:35:10;;;;;;;3.1;1.9;;;;;;;;;;;;;
2019/10/04 13:37:36;;;;;;;3.7;1.3;;;;;;;;;;;;;
2019/10/04 13:40:07;;;;;;;3.1;1.3;;;;;;;;;;;;;
2019/10/04 13:42:32;;;;;;;4.2;1.4;;;;;;;;;;;;;
2019/10/04 13:45:05;;;;;;;2;1.2;;;;;;;;;;;;;
2019/10/04 13:47:26;;;;;;;5;1.3;;;;;;;;;;;;;
2019/10/04 13:49:51;;;;;;;5.6;2.1;;;;;;;;;;;;;
2019/10/04 13:52:20;;;;;;;5.4;1.3;;;;;;;;;;;;;
2019/10/04 13:54:43;;;;;;;5.1;1.5;;;;;;;;;;;;;
2019/10/04 13:57:19;;;;;;;9.5;1.8;;;;;;;;;;;;;
2019/10/04 13:59:45;;;;;;;5.3;1.7;;;;;;;;;;;;;
2019/10/04 14:02:10;;;;;;;4.9;1.5;;;;;;;;;;;;;
2019/10/04 14:04:35;;;;;;;4.2;1.6;;;;;;;;;;;;;
2019/10/04 14:06:59;;;;;;;3.9;1.4;;;;;;;;;;;;;
2019/10/04 14:09:33;;;;;;;4.3;2;;;;;;;;;;;;;
2019/10/04 14:11:54;;;;;;;3.7;2;;;;;;;;;;;;;
2019/10/04 14:14:19;;;;;;;5;2;;;;;;;;;;;;;
2019/10/04 14:16:49;;;;;;;5.1;2;;;;;;;;;;;;;
2019/10/04 14:19:13;;;;;;;3.9;1.6;;;;;;;;;;;;;
2019/10/04 14:21:38;;;;;;;3.8;1.6;;;;;;;;;;;;;
2019/10/04 14:24:07;;;;;;;4.2;1.5;;;;;;;;;;;;;
2019/10/04 14:26:29;;;;;;;4.7;1.8;;;;;;;;;;;;;
2019/10/04 14:29:00;;;;;;;2.8;1.5;;;;;;;;;;;;;
2019/10/04 14:31:19;;;;;;;6.6;1.9;;;;;;;;;;;;;
2019/10/04 14:33:48;;;;;;;4.8;1.8;;;;;;;;;;;;;
2019/10/04 14:36:11;;;;;;;5.9;1.7;;;;;;;;;;;;;
2019/10/04 14:38:37;;;;;;;5.4;1.9;;;;;;;;;;;;;
2019/10/04 14:41:03;;;;;;;4.6;2.6;;;;;;;;;;;;;
2019/10/04 14:43:29;;;;;;;3.5;1.6;;;;;;;;;;;;;
2019/10/04 14:45:52;;;;;;;2.5;1.4;;;;;;;;;;;;;
2019/10/04 14:48:17;;;;;;;5;2;;;;;;;;;;;;;
2019/10/04 14:50:45;;;;;;;3.7;2;;;;;;;;;;;;;
2019/10/04 14:53:15;;;;;;;2.3;1.4;;;;;;;;;;;;;
2019/10/04 14:55:41;;;;;;;4.3;1.6;;;;;;;;;;;;;
2019/10/04 14:58:17;;;;;;;5.2;1.8;;;;;;;;;;;;;
2019/10/04 15:00:42;;;;;;;5;2;;;;;;;;;;;;;
2019/10/04 15:03:10;;;;;;;3.8;2.4;;;;;;;;;;;;;
2019/10/04 15:05:37;;;;;;;5.5;2.8;;;;;;;;;;;;;
2019/10/04 15:08:08;;;;;;;7.5;4.1;;;;;;;;;;;;;
2019/10/04 15:11:18;;;;;;;7.2;4;;;;;;;;;;;;;
2019/10/04 15:13:32;;;;;;;6.5;3.9;;;;;;;;;;;;;
2019/10/04 15:15:57;;;;;;;6.1;4.5;;;;;;;;;;;;;
2019/10/04 15:18:21;;;;;;;8.4;3.7;;;;;;;;;;;;;
2019/10/04 15:21:14;;;;;;;9.8;5.6;;;;;;;;;;;;;
2019/10/04 15:23:39;;;;;;;11.1;6.2;;;;;;;;;;;;;
2019/10/04 15:26:03;;;;;;;7.9;3.7;;;;;;;;;;;;;
2019/10/04 15:28:33;;;;;;;6.8;3.1;;;;;;;;;;;;;
2019/10/04 15:30:58;;;;;;;8.5;4.4;;;;;;;;;;;;;
2019/10/04 15:33:19;;;;;;;4.8;2.6;;;;;;;;;;;;;
2019/10/04 15:35:52;;;;;;;6;2.5;;;;;;;;;;;;;
2019/10/04 15:38:24;;;;;;;5.4;2;;;;;;;;;;;;;
2019/10/04 15:40:49;;;;;;;5.9;2.5;;;;;;;;;;;;;
2019/10/04 15:43:14;;;;;;;7.7;3.5;;;;;;;;;;;;;
2019/10/04 15:45:35;;;;;;;17.4;11.4;;;;;;;;;;;;;
2019/10/04 15:48:02;;;;;;;12.7;7.6;;;;;;;;;;;;;
2019/10/04 15:50:29;;;;;;;6.5;4.2;;;;;;;;;;;;;
2019/10/04 15:52:52;;;;;;;5.9;3.7;;;;;;;;;;;;;
2019/10/04 15:55:16;;;;;;;10.4;7.4;;;;;;;;;;;;;
2019/10/04 15:57:48;;;;;;;4.2;3;;;;;;;;;;;;;
2019/10/04 16:00:29;;;;;;;12.3;6;;;;;;;;;;;;;
2019/10/04 16:02:47;;;;;;;14.7;8.5;;;;;;;;;;;;;
2019/10/04 16:05:09;;;;;;;9.6;5.3;;;;;;;;;;;;;
2019/10/04 16:07:33;;;;;;;6;3.2;;;;;;;;;;;;;
2019/10/04 16:10:02;;;;;;;42.1;38.5;;;;;;;;;;;;;
2019/10/04 16:12:29;;;;;;;29.1;26.6;;;;;;;;;;;;;
2019/10/04 16:15:19;;;;;;;8.6;6.5;;;;;;;;;;;;;
2019/10/04 16:17:44;;;;;;;7.5;5.3;;;;;;;;;;;;;
2019/10/04 16:20:25;;;;;;;5.7;4.1;;;;;;;;;;;;;
2019/10/04 16:22:44;;;;;;;5.5;3.4;;;;;;;;;;;;;
2019/10/04 16:25:10;;;;;;;5.6;4.1;;;;;;;;;;;;;
2019/10/04 16:27:33;;;;;;;6.4;4.6;;;;;;;;;;;;;
2019/10/04 16:29:56;;;;;;;7.3;4.5;;;;;;;;;;;;;
2019/10/04 16:32:22;;;;;;;6.2;3.9;;;;;;;;;;;;;
2019/10/04 16:37:17;;;;;;;4.7;3.2;;;;;;;;;;;;;
2019/10/04 16:39:46;;;;;;;3;1.8;;;;;;;;;;;;;
2019/10/04 16:42:08;;;;;;;3;2;;;;;;;;;;;;;
2019/10/04 16:44:35;;;;;;;4;2.3;;;;;;;;;;;;;
2019/10/04 16:47:11;;;;;;;3.8;2.4;;;;;;;;;;;;;
2019/10/04 16:54:45;;;;;;;3.9;2.4;;;;;;;;;;;;;
2019/10/04 16:57:17;;;;;;;2.6;1.8;;;;;;;;;;;;;
2019/10/04 16:59:43;;;;;;;3.1;1.8;;;;;;;;;;;;;
2019/10/04 17:02:10;;;;;;;3.8;1.8;;;;;;;;;;;;;
2019/10/04 17:04:39;;;;;;;3.3;1.7;;;;;;;;;;;;;
2019/10/04 17:07:06;;;;;;;3.3;1.9;;;;;;;;;;;;;
2019/10/04 17:09:35;;;;;;;3.1;2.1;;;;;;;;;;;;;
2019/10/04 17:12:06;;;;;;;4;2.7;;;;;;;;;;;;;
2019/10/04 17:14:31;;;;;;;4.6;2;;;;;;;;;;;;;
2019/10/04 17:17:40;;;;;;;3.7;2.9;;;;;;;;;;;;;
2019/10/04 17:21:49;;;;;;;5.4;3.2;;;;;;;;;;;;;
2019/10/04 17:24:22;;;;;;;6.5;4.6;;;;;;;;;;;;;
2019/10/04 17:26:50;;;;;;;4.6;3.5;;;;;;;;;;;;;
2019/10/04 17:29:15;;;;;;;4.5;3.1;;;;;;;;;;;;;
2019/10/04 17:31:41;;;;;;;6.1;3;;;;;;;;;;;;;
2019/10/04 17:34:05;;;;;;;4.9;3.1;;;;;;;;;;;;;
2019/10/04 17:36:30;;;;;;;4.1;3.3;;;;;;;;;;;;;
2019/10/04 17:39:03;;;;;;;5;3.4;;;;;;;;;;;;;
2019/10/04 17:41:27;;;;;;;7.3;4.9;;;;;;;;;;;;;
2019/10/04 17:44:13;;;;;;;10.3;5.5;;;;;;;;;;;;;
2019/10/04 17:46:44;;;;;;;7.2;4.8;;;;;;;;;;;;;
2019/10/04 17:49:10;;;;;;;6.7;4.6;;;;;;;;;;;;;
2019/10/04 17:51:39;;;;;;;6.7;4.7;;;;;;;;;;;;;
2019/10/04 17:54:10;;;;;;;7.7;5.3;;;;;;;;;;;;;
2019/10/04 17:59:19;;;;;;;12.1;8.9;;;;;;;;;;;;;
2019/10/04 18:02:34;;;;;;;4.4;3.6;;;;;;;;;;;;;
2019/10/04 18:05:00;;;;;;;3.4;2.4;;;;;;;;;;;;;
2019/10/04 18:07:29;;;;;;;6.9;3.5;;;;;;;;;;;;;
2019/10/04 18:09:49;;;;;;;3.1;2.2;;;;;;;;;;;;;
2019/10/04 18:12:20;;;;;;;3.6;2.2;;;;;;;;;;;;;
2019/10/04 18:14:47;;;;;;;4;2.3;;;;;;;;;;;;;
2019/10/04 18:17:11;;;;;;;5.1;2.7;;;;;;;;;;;;;
2019/10/04 18:19:48;;;;;;;9;7.2;;;;;;;;;;;;;
2019/10/04 18:25:11;;;;;;;14.1;10.1;;;;;;;;;;;;;
2019/10/04 18:26:57;;;;;;;10.7;7;;;;;;;;;;;;;
2019/10/04 18:29:24;;;;;;;8.8;5.3;;;;;;;;;;;;;
2019/10/04 18:31:51;;;;;;;5.6;4.1;;;;;;;;;;;;;
2019/10/04 18:34:12;;;;;;;7.4;4.5;;;;;;;;;;;;;
2019/10/04 18:36:38;;;;;;;6.2;5.1;;;;;;;;;;;;;
2019/10/04 18:39:03;;;;;;;8.1;5.8;;;;;;;;;;;;;
2019/10/04 18:41:34;;;;;;;9.5;5;;;;;;;;;;;;;
2019/10/04 18:44:11;;;;;;;6.6;5;;;;;;;;;;;;;
2019/10/04 18:46:23;;;;;;;6.3;4.8;;;;;;;;;;;;;
2019/10/04 18:48:59;;;;;;;6.9;5.1;;;;;;;;;;;;;
2019/10/04 18:51:27;;;;;;;7.2;4.9;;;;;;;;;;;;;
2019/10/04 18:53:53;;;;;;;8.8;6.2;;;;;;;;;;;;;
2019/10/04 18:56:20;;;;;;;8.8;5.6;;;;;;;;;;;;;
2019/10/04 18:58:41;;;;;;;8.7;6.3;;;;;;;;;;;;;
2019/10/04 19:01:09;;;;;;;6.8;5.1;;;;;;;;;;;;;
2019/10/04 19:03:34;;;;;;;6.2;4.6;;;;;;;;;;;;;
2019/10/04 19:05:57;;;;;;;7.7;5.1;;;;;;;;;;;;;
2019/10/04 19:08:24;;;;;;;7.5;5.2;;;;;;;;;;;;;
2019/10/04 19:10:50;;;;;;;5.8;4.2;;;;;;;;;;;;;
2019/10/04 19:13:18;;;;;;;5.2;3.7;;;;;;;;;;;;;
2019/10/04 19:15:45;;;;;;;4.3;3.2;;;;;;;;;;;;;
2019/10/04 19:18:13;;;;;;;5.8;3.3;;;;;;;;;;;;;
2019/10/04 19:20:38;;;;;;;5.7;4.3;;;;;;;;;;;;;
2019/10/04 19:23:16;;;;;;;6.2;3.7;;;;;;;;;;;;;
2019/10/04 19:25:47;;;;;;;4.2;3.3;;;;;;;;;;;;;
2019/10/04 19:28:02;;;;;;;7;4.2;;;;;;;;;;;;;
2019/10/04 19:30:36;;;;;;;6.3;4.3;;;;;;;;;;;;;
2019/10/04 19:33:09;;;;;;;6.5;4.1;;;;;;;;;;;;;
2019/10/04 19:35:44;;;;;;;6.1;4;;;;;;;;;;;;;
2019/10/04 19:38:01;;;;;;;4.3;3.7;;;;;;;;;;;;;
2019/10/04 19:40:26;;;;;;;5.8;3.8;;;;;;;;;;;;;
2019/10/04 19:42:57;;;;;;;3.6;3.2;;;;;;;;;;;;;
2019/10/04 19:45:27;;;;;;;7.1;4.4;;;;;;;;;;;;;
2019/10/04 19:47:48;;;;;;;6.4;4.2;;;;;;;;;;;;;
2019/10/04 19:52:36;;;;;;;5.6;2.7;;;;;;;;;;;;;
2019/10/04 19:55:01;;;;;;;4.1;2.7;;;;;;;;;;;;;
2019/10/04 19:57:31;;;;;;;5.1;2.7;;;;;;;;;;;;;
2019/10/04 20:00:05;;;;;;;3.2;2.5;;;;;;;;;;;;;
2019/10/04 20:02:20;;;;;;;5;2.9;;;;;;;;;;;;;
2019/10/04 20:04:46;;;;;;;3.7;2.2;;;;;;;;;;;;;
2019/10/04 20:07:14;;;;;;;4.1;2.3;;;;;;;;;;;;;
2019/10/04 20:09:43;;;;;;;3.1;2.1;;;;;;;;;;;;;
2019/10/04 20:12:05;;;;;;;3.1;2.1;;;;;;;;;;;;;
2019/10/04 20:14:30;;;;;;;2.9;2;;;;;;;;;;;;;
2019/10/04 20:17:02;;;;;;;3.9;2.4;;;;;;;;;;;;;
2019/10/04 20:19:22;;;;;;;3.3;2.1;;;;;;;;;;;;;
2019/10/04 20:21:48;;;;;;;4.3;2.2;;;;;;;;;;;;;
2019/10/04 20:24:13;;;;;;;4;2.2;;;;;;;;;;;;;
2019/10/04 20:26:45;;;;;;;3.5;2.1;;;;;;;;;;;;;
2019/10/04 20:29:09;;;;;;;3;2.1;;;;;;;;;;;;;
2019/10/04 20:31:34;;;;;;;3.4;2.3;;;;;;;;;;;;;
2019/10/04 20:34:03;;;;;;;2.8;2.4;;;;;;;;;;;;;
2019/10/04 20:36:30;;;;;;;4.5;2.6;;;;;;;;;;;;;
2019/10/04 20:38:51;;;;;;;5.6;2.9;;;;;;;;;;;;;
2019/10/04 20:41:15;;;;;;;6.5;3.6;;;;;;;;;;;;;
2019/10/04 20:43:41;;;;;;;6;3.5;;;;;;;;;;;;;
2019/10/04 20:46:05;;;;;;;5.2;3.8;;;;;;;;;;;;;
2019/10/04 20:48:34;;;;;;;5.8;3.6;;;;;;;;;;;;;
2019/10/04 20:50:59;;;;;;;5.6;3.8;;;;;;;;;;;;;
2019/10/04 20:53:28;;;;;;;6;3.6;;;;;;;;;;;;;
2019/10/04 20:55:52;;;;;;;5.5;3.7;;;;;;;;;;;;;
2019/10/04 20:58:14;;;;;;;6.5;3.3;;;;;;;;;;;;;
2019/10/04 21:00:41;;;;;;;4.9;3.3;;;;;;;;;;;;;
2019/10/04 21:03:06;;;;;;;7.6;4;;;;;;;;;;;;;
2019/10/04 21:05:30;;;;;;;5.9;3.9;;;;;;;;;;;;;
2019/10/04 21:07:54;;;;;;;7.6;4.1;;;;;;;;;;;;;
2019/10/04 21:10:21;;;;;;;5.5;3.9;;;;;;;;;;;;;
2019/10/04 21:12:45;;;;;;;3.8;3;;;;;;;;;;;;;
2019/10/04 21:15:11;;;;;;;3.9;2.9;;;;;;;;;;;;;
2019/10/04 21:17:43;;;;;;;4.2;3.3;;;;;;;;;;;;;
2019/10/04 21:20:05;;;;;;;5;3.3;;;;;;;;;;;;;
2019/10/04 21:22:26;;;;;;;5.5;3.5;;;;;;;;;;;;;